This is the latest recevied weather packets stored in our database for station/object LZ1NAG-10. If no packets are shown the sender has not sent any weather packets the latest 10 day(s).
| Time | Temp. | Humidity | Pressure | Rain* | Wind** | Luminosity | Snow |
|---|---|---|---|---|---|---|---|
| 1777698106 | 1.67° C | 54% | 1026.4 hPa | - | - | - | - |
| 1777697206 | 1.67° C | 54% | 1026.2 hPa | - | - | - | - |
| 1777696305 | 1.11° C | 54% | 1026.4 hPa | - | - | - | - |
| 1777695405 | 0.56° C | 54% | 1026.4 hPa | - | - | - | - |
| 1777694505 | 0.56° C | 54% | 1026.3 hPa | - | - | - | - |
| 1777693605 | 0.56° C | 54% | 1026.3 hPa | - | - | - | - |
| 1777692705 | 0° C | 54% | 1026.2 hPa | - | - | - | - |
| 1777691805 | 0° C | 54% | 1026.2 hPa | - | - | - | - |
| 1777690904 | -0.56° C | 54% | 1026.3 hPa | - | - | - | - |
| 1777690004 | 0° C | 54% | 1026.2 hPa | - | - | - | - |
| 1777689104 | -0.56° C | 54% | 1026.2 hPa | - | - | - | - |
| 1777688204 | -0.56° C | 54% | 1026.3 hPa | - | - | - | - |
| 1777687304 | -0.56° C | 54% | 1026.4 hPa | - | - | - | - |
| 1777686404 | -1.11° C | 55% | 1026.6 hPa | - | - | - | - |
| 1777685503 | -1.11° C | 54% | 1026.4 hPa | - | - | - | - |
| 1777684603 | -1.11° C | 55% | 1026.3 hPa | - | - | - | - |
| 1777683703 | -1.11° C | 54% | 1026.4 hPa | - | - | - | - |
| 1777682803 | -1.11° C | 55% | 1026.5 hPa | - | - | - | - |
| 1777681903 | -1.67° C | 55% | 1026.8 hPa | - | - | - | - |
| 1777681002 | -1.67° C | 54% | 1026.9 hPa | - | - | - | - |
| 1777680102 | -2.22° C | 55% | 1027.2 hPa | - | - | - | - |
| 1777679202 | -2.22° C | 55% | 1027.2 hPa | - | - | - | - |
| 1777678297 | -2.22° C | 55% | 1027.2 hPa | - | - | - | - |
| 1777677397 | -2.78° C | 55% | 1027.4 hPa | - | - | - | - |
| 1777676497 | -2.78° C | 55% | 1027.3 hPa | - | - | - | - |
* Rain since midnight (hover to see other rain measurements)
** Current wind speed in m/s (hover to see current wind gust speed)